Time;durP1;ratioP1;P1;durP2;ratioP2;P2;SDS_P1;SDS_P2;PMS_P1;PMS_P2;Temp;Humidity;BMP_temperature;BMP_pressure;BME280_temperature;BME280_humidity;BME280_pressure;Samples;Min_cycle;Max_cycle;Signal;HPM_P1;HPM_P2
2022/04/25 00:01:26;;;;;;;;;;;;;;;13.38;58.99;98715.31;4438044;32;35968;-77
2022/04/25 00:03:54;;;;;;;;;;;;;;;13.29;58.98;98719.94;4423051;32;34507;-77
2022/04/25 00:06:22;;;;;;;;;;;;;;;13.28;58.95;98714.78;4403627;32;32821;-77
2022/04/25 00:08:50;;;;;;;;;;;;;;;13.22;59.07;98713.69;4422804;32;32392;-77
2022/04/25 00:11:19;;;;;;;;;;;;;;;13.29;58.87;98717.28;4430286;32;35397;-77
2022/04/25 00:13:47;;;;;;;;;;;;;;;13.32;58.64;98719.56;4433511;32;35243;-77
2022/04/25 00:16:15;;;;;;;;;;;;;;;13.38;58.67;98712.63;4427377;32;31677;-78
2022/04/25 00:18:42;;;;;;;;;;;;;;;13.33;58.81;98715.88;4399129;32;31656;-81
2022/04/25 00:21:10;;;;;;;;;;;;;;;13.28;58.82;98709.44;4434730;32;35812;-77
2022/04/25 00:23:37;;;;;;;;;;;;;;;13.21;58.87;98711.22;4415352;32;32596;-80
2022/04/25 00:26:06;;;;;;;;;;;;;;;13.18;59.14;98703.56;4413016;32;32919;-78
2022/04/25 00:28:33;;;;;;;;;;;;;;;13.21;59.12;98703.22;4392197;32;33178;-77
2022/04/25 00:31:04;;;;;;;;;;;;;;;13.15;59.25;98704.78;4418743;32;35697;-77
2022/04/25 00:33:32;;;;;;;;;;;;;;;13.01;59.42;98708.28;4414154;32;34367;-77
2022/04/25 00:36:00;;;;;;;;;;;;;;;13.07;59.06;98704.06;4422895;32;33323;-77
2022/04/25 00:38:27;;;;;;;;;;;;;;;13.16;58.59;98695.75;4422085;32;34678;-77
2022/04/25 00:40:54;;;;;;;;;;;;;;;13.01;59.03;98704.78;4434998;32;35956;-78
2022/04/25 00:43:22;;;;;;;;;;;;;;;13.03;58.83;98703.59;4419007;32;34120;-78
2022/04/25 00:45:49;;;;;;;;;;;;;;;13.05;58.62;98698.06;4407271;32;33722;-76
2022/04/25 00:48:17;;;;;;;;;;;;;;;13.00;58.78;98693.28;4412318;32;34017;-78
2022/04/25 00:50:45;;;;;;;;;;;;;;;13.02;58.71;98701.12;4394143;32;34364;-77
2022/04/25 00:53:12;;;;;;;;;;;;;;;12.97;58.86;98699.00;4420009;32;34942;-77
2022/04/25 00:55:41;;;;;;;;;;;;;;;12.93;58.94;98704.87;4402479;32;32683;-77
2022/04/25 00:58:09;;;;;;;;;;;;;;;12.95;58.79;98709.03;4419412;32;34852;-76
2022/04/25 01:00:37;;;;;;;;;;;;;;;12.72;59.96;98705.59;4414369;32;36183;-81
2022/04/25 01:03:05;;;;;;;;;;;;;;;12.81;59.75;98715.19;4412579;32;35420;-77
2022/04/25 01:05:32;;;;;;;;;;;;;;;12.78;59.93;98710.22;4431657;32;33372;-77
2022/04/25 01:07:59;;;;;;;;;;;;;;;12.80;59.81;98716.19;4420009;32;33351;-77
2022/04/25 01:10:28;;;;;;;;;;;;;;;12.76;60.18;98725.56;4425483;32;35570;-78
2022/04/25 01:12:55;;;;;;;;;;;;;;;12.86;59.99;98722.63;4401846;32;34303;-77
2022/04/25 01:15:22;;;;;;;;;;;;;;;12.91;59.82;98722.91;4401423;32;33261;-77
2022/04/25 01:17:50;;;;;;;;;;;;;;;12.96;59.67;98721.34;4418009;32;34424;-77
2022/04/25 01:20:17;;;;;;;;;;;;;;;12.93;59.87;98720.91;4435838;32;35664;-78
2022/04/25 01:22:52;;;;;;;;;;;;;;;12.86;60.19;98722.63;4426621;32;34282;-77
2022/04/25 01:28:06;;;;;;;;;;;;;;;12.94;60.07;98717.25;4416448;32;34466;-79
2022/04/25 01:30:33;;;;;;;;;;;;;;;12.92;60.28;98724.56;4439652;32;35794;-77
2022/04/25 01:33:01;;;;;;;;;;;;;;;12.72;61.35;98724.28;4425137;32;35151;-76
2022/04/25 01:35:28;;;;;;;;;;;;;;;12.65;61.70;98715.34;4440115;32;33295;-78
2022/04/25 01:37:56;;;;;;;;;;;;;;;12.89;61.01;98719.59;4422758;32;34214;-78
2022/04/25 01:40:25;;;;;;;;;;;;;;;12.91;61.01;98715.72;4418022;32;35656;-78
2022/04/25 01:42:52;;;;;;;;;;;;;;;12.81;61.52;98712.50;4417218;32;33047;-78
2022/04/25 01:45:20;;;;;;;;;;;;;;;12.54;62.84;98714.97;4427055;32;32861;-77
2022/04/25 01:47:47;;;;;;;;;;;;;;;12.65;62.51;98710.00;4421191;32;34629;-77
2022/04/25 01:50:15;;;;;;;;;;;;;;;12.84;61.78;98706.78;4430913;32;35578;-77
2022/04/25 01:52:43;;;;;;;;;;;;;;;12.84;61.62;98709.47;4422556;32;34222;-77
2022/04/25 01:55:10;;;;;;;;;;;;;;;12.80;60.66;98708.19;4420756;32;33018;-76
2022/04/25 01:57:37;;;;;;;;;;;;;;;12.86;60.11;98704.75;4410243;32;33651;-77
2022/04/25 02:00:05;;;;;;;;;;;;;;;13.04;59.03;98705.25;4397965;32;35480;-79
2022/04/25 02:02:34;;;;;;;;;;;;;;;13.18;58.43;98701.75;4424270;32;34775;-77
2022/04/25 02:05:03;;;;;;;;;;;;;;;13.20;58.45;98696.22;4435897;32;34157;-77
2022/04/25 02:07:32;;;;;;;;;;;;;;;13.27;57.87;98705.13;4437832;32;34776;-77
2022/04/25 02:09:59;;;;;;;;;;;;;;;13.47;57.18;98695.47;4439035;32;35278;-77
2022/04/25 02:12:27;;;;;;;;;;;;;;;13.61;57.58;98697.28;4423237;32;35272;-77
2022/04/25 02:14:55;;;;;;;;;;;;;;;13.77;56.92;98692.53;4408118;32;33648;-77
2022/04/25 02:17:22;;;;;;;;;;;;;;;13.98;56.39;98686.34;4426141;32;34798;-76
2022/04/25 02:19:50;;;;;;;;;;;;;;;13.88;56.98;98691.19;4427623;32;35412;-77
2022/04/25 02:22:17;;;;;;;;;;;;;;;14.09;56.76;98692.00;4403167;32;32980;-79
2022/04/25 02:24:45;;;;;;;;;;;;;;;14.06;56.62;98691.56;4417158;32;31732;-76
2022/04/25 02:27:12;;;;;;;;;;;;;;;14.06;56.55;98694.25;4439696;32;33817;-76
2022/04/25 02:29:40;;;;;;;;;;;;;;;13.95;56.87;98687.56;4408048;32;35270;-77
2022/04/25 02:32:12;;;;;;;;;;;;;;;14.08;56.52;98692.19;4404786;32;33093;-77
2022/04/25 02:34:40;;;;;;;;;;;;;;;14.07;55.88;98699.38;4419801;32;34117;-77
2022/04/25 02:37:07;;;;;;;;;;;;;;;14.13;56.39;98705.84;4417893;32;33602;-79
2022/04/25 02:39:34;;;;;;;;;;;;;;;13.79;56.36;98705.72;4426176;32;36005;-77
2022/04/25 02:42:02;;;;;;;;;;;;;;;14.00;56.40;98719.91;4424265;32;32790;-81
2022/04/25 02:44:29;;;;;;;;;;;;;;;13.91;56.45;98718.38;4394972;32;32931;-78
2022/04/25 02:46:57;;;;;;;;;;;;;;;14.15;55.67;98711.81;4409951;32;32677;-81
2022/04/25 02:49:25;;;;;;;;;;;;;;;13.96;56.08;98723.97;4433745;32;35697;-78
2022/04/25 02:51:53;;;;;;;;;;;;;;;14.05;55.71;98732.72;4406907;32;34257;-76
2022/04/25 02:54:20;;;;;;;;;;;;;;;14.08;55.78;98748.34;4407132;32;32465;-77
2022/04/25 02:56:48;;;;;;;;;;;;;;;14.27;55.48;98737.88;4412730;32;34134;-78
2022/04/25 02:59:15;;;;;;;;;;;;;;;13.86;56.30;98746.72;4417656;32;35213;-77
2022/04/25 03:01:42;;;;;;;;;;;;;;;14.19;55.46;98747.88;4440594;32;33711;-79
2022/04/25 03:04:10;;;;;;;;;;;;;;;14.38;54.67;98751.53;4416510;32;32706;-77
2022/04/25 03:06:38;;;;;;;;;;;;;;;14.35;54.61;98769.00;4410232;32;34214;-78
2022/04/25 03:09:05;;;;;;;;;;;;;;;14.45;54.13;98759.63;4412053;32;33192;-78
2022/04/25 03:11:34;;;;;;;;;;;;;;;14.45;54.26;98767.66;4418484;32;34690;-77
2022/04/25 03:14:02;;;;;;;;;;;;;;;14.52;53.84;98773.87;4419710;32;31716;-77
2022/04/25 03:16:29;;;;;;;;;;;;;;;14.55;53.91;98766.31;4415425;32;32300;-77
2022/04/25 03:19:00;;;;;;;;;;;;;;;14.41;54.42;98773.59;4415208;32;34122;-77
2022/04/25 03:21:28;;;;;;;;;;;;;;;14.31;54.27;98779.28;4404924;32;33887;-78
2022/04/25 03:23:56;;;;;;;;;;;;;;;14.43;54.22;98770.53;4416129;32;33836;-78
2022/04/25 03:26:24;;;;;;;;;;;;;;;14.37;53.75;98762.47;4415162;32;33582;-77
2022/04/25 03:28:51;;;;;;;;;;;;;;;14.37;53.90;98775.84;4415648;32;35168;-77
2022/04/25 03:31:19;;;;;;;;;;;;;;;14.35;54.31;98769.00;4423165;32;34066;-77
2022/04/25 03:33:47;;;;;;;;;;;;;;;14.18;55.00;98773.81;4441684;32;32791;-79
2022/04/25 03:36:14;;;;;;;;;;;;;;;14.22;54.29;98777.75;4429712;32;33648;-77
2022/04/25 03:38:42;;;;;;;;;;;;;;;14.41;54.17;98777.09;4427170;32;35234;-80
2022/04/25 03:41:10;;;;;;;;;;;;;;;14.45;54.17;98778.34;4423503;32;34741;-78
2022/04/25 03:43:37;;;;;;;;;;;;;;;14.42;54.34;98784.09;4394521;32;801172;-77
2022/04/25 03:46:05;;;;;;;;;;;;;;;14.38;54.39;98772.94;4421832;32;34671;-76
2022/04/25 03:48:33;;;;;;;;;;;;;;;14.40;54.25;98770.09;4420935;32;34914;-79
2022/04/25 03:51:04;;;;;;;;;;;;;;;14.35;54.19;98767.16;4433617;32;35283;-78
2022/04/25 03:53:32;;;;;;;;;;;;;;;14.23;54.45;98760.66;4424412;32;33789;-76
2022/04/25 03:58:46;;;;;;;;;;;;;;;13.99;55.34;98762.88;4426611;32;34092;-79
2022/04/25 04:01:13;;;;;;;;;;;;;;;14.05;54.96;98757.59;4420737;32;35414;-77
2022/04/25 04:03:41;;;;;;;;;;;;;;;14.03;55.13;98767.66;4414989;32;34094;-77
2022/04/25 04:06:11;;;;;;;;;;;;;;;13.43;56.56;98769.88;4404719;32;33964;-77
2022/04/25 04:08:39;;;;;;;;;;;;;;;13.78;55.79;98768.22;4421487;32;34892;-78
2022/04/25 04:11:06;;;;;;;;;;;;;;;13.87;55.65;98775.91;4433078;32;34170;-82
2022/04/25 04:13:35;;;;;;;;;;;;;;;14.15;54.85;98782.16;4416263;32;34105;-77
2022/04/25 04:16:03;;;;;;;;;;;;;;;14.11;55.14;98785.41;4423886;32;33397;-78
2022/04/25 04:18:31;;;;;;;;;;;;;;;14.15;55.04;98787.50;4415446;32;34288;-77
2022/04/25 04:20:58;;;;;;;;;;;;;;;14.26;54.61;98783.53;4439681;32;34223;-83
2022/04/25 04:23:33;;;;;;;;;;;;;;;14.43;54.25;98783.91;4435920;32;33222;-77
2022/04/25 04:26:01;;;;;;;;;;;;;;;14.42;54.16;98785.97;4431928;32;34239;-77
2022/04/25 04:28:28;;;;;;;;;;;;;;;14.62;53.83;98790.44;4430684;32;34732;-78
2022/04/25 04:30:56;;;;;;;;;;;;;;;14.56;53.65;98784.00;4425587;32;36158;-78
2022/04/25 04:33:23;;;;;;;;;;;;;;;14.80;52.99;98782.75;4435711;32;33377;-77
2022/04/25 04:36:18;;;;;;;;;;;;;;;14.41;54.06;98793.16;4443254;32;34147;-81
2022/04/25 04:38:48;;;;;;;;;;;;;;;14.54;53.84;98791.41;4429214;32;34809;-78
2022/04/25 04:41:16;;;;;;;;;;;;;;;14.57;53.84;98799.03;4408585;32;34200;-78
2022/04/25 04:43:43;;;;;;;;;;;;;;;14.57;54.30;98795.56;4424849;32;33277;-77
2022/04/25 04:46:10;;;;;;;;;;;;;;;14.46;54.73;98796.09;4436785;32;35143;-76
2022/04/25 04:48:38;;;;;;;;;;;;;;;14.50;54.92;98797.34;4422609;32;35366;-76
2022/04/25 04:51:06;;;;;;;;;;;;;;;15.00;53.15;98791.75;4403124;32;34687;-76
2022/04/25 04:53:34;;;;;;;;;;;;;;;14.74;54.09;98802.28;4436539;32;32695;-77
2022/04/25 04:56:03;;;;;;;;;;;;;;;14.72;54.32;98802.47;4421032;32;34310;-75
2022/04/25 04:58:34;;;;;;;;;;;;;;;14.60;54.72;98805.88;4408889;32;34590;-78
2022/04/25 05:01:01;;;;;;;;;;;;;;;14.90;53.54;98810.00;4425189;32;34800;-76
2022/04/25 05:03:28;;;;;;;;;;;;;;;14.81;54.03;98814.69;4427022;32;33842;-76
2022/04/25 05:05:56;;;;;;;;;;;;;;;14.96;53.45;98807.41;4430829;32;35013;-76
2022/04/25 05:08:26;;;;;;;;;;;;;;;14.95;54.09;98805.72;4429939;32;34861;-76
2022/04/25 05:10:54;;;;;;;;;;;;;;;14.97;54.67;98809.06;4434280;32;34802;-76
2022/04/25 05:13:22;;;;;;;;;;;;;;;15.04;54.35;98807.22;4423645;32;33603;-75
2022/04/25 05:15:49;;;;;;;;;;;;;;;14.79;54.79;98819.44;4421508;32;34910;-77
2022/04/25 05:18:19;;;;;;;;;;;;;;;14.96;54.48;98817.28;4435533;32;35072;-76
2022/04/25 05:20:46;;;;;;;;;;;;;;;15.22;53.76;98818.25;4428876;32;34184;-76
2022/04/25 05:23:14;;;;;;;;;;;;;;;15.05;53.93;98821.47;4423080;32;31631;-76
2022/04/25 05:25:45;;;;;;;;;;;;;;;14.77;54.05;98823.31;4438049;32;34309;-77
2022/04/25 05:28:13;;;;;;;;;;;;;;;14.99;53.64;98822.22;4433560;32;36148;-75
2022/04/25 05:30:40;;;;;;;;;;;;;;;15.16;53.22;98823.59;4441833;32;33768;-76
2022/04/25 05:33:09;;;;;;;;;;;;;;;15.11;53.63;98829.53;4438970;32;33364;-77
2022/04/25 05:35:37;;;;;;;;;;;;;;;15.13;53.47;98829.34;4425360;32;35756;-76
2022/04/25 05:38:10;;;;;;;;;;;;;;;15.01;54.04;98818.34;4419869;32;33828;-76
2022/04/25 05:40:39;;;;;;;;;;;;;;;15.18;53.59;98819.69;4433514;32;34254;-76
2022/04/25 05:43:07;;;;;;;;;;;;;;;14.82;54.58;98824.38;4418630;32;32959;-76
2022/04/25 05:45:35;;;;;;;;;;;;;;;14.87;54.20;98826.47;4412787;32;34092;-77
2022/04/25 05:51:58;;;;;;;;;;;;;;;14.55;55.21;98825.19;4432917;32;35530;-76
2022/04/25 05:53:45;;;;;;;;;;;;;;;14.80;55.20;98834.47;4439753;32;33049;-78
2022/04/25 05:56:12;;;;;;;;;;;;;;;14.86;55.39;98832.88;4426807;32;33434;-76
2022/04/25 05:58:39;;;;;;;;;;;;;;;14.89;54.54;98827.09;4423752;32;34581;-76
2022/04/25 06:01:07;;;;;;;;;;;;;;;15.09;54.43;98833.44;4428615;32;33497;-76
2022/04/25 06:03:36;;;;;;;;;;;;;;;15.03;54.60;98831.56;4438431;32;33016;-76
2022/04/25 06:06:03;;;;;;;;;;;;;;;14.84;54.79;98829.56;4423731;32;34023;-76
2022/04/25 06:08:31;;;;;;;;;;;;;;;14.84;54.35;98837.59;4422350;32;35131;-75
2022/04/25 06:10:59;;;;;;;;;;;;;;;14.97;54.84;98832.31;4434954;32;33419;-75
2022/04/25 06:13:26;;;;;;;;;;;;;;;14.97;54.58;98827.81;4441539;32;33517;-77
2022/04/25 06:15:54;;;;;;;;;;;;;;;14.94;53.87;98830.03;4419347;32;32587;-77
2022/04/25 06:18:22;;;;;;;;;;;;;;;14.98;54.87;98824.09;4422829;32;34878;-76
2022/04/25 06:20:50;;;;;;;;;;;;;;;15.11;53.69;98834.09;4423579;32;34343;-75
2022/04/25 06:23:18;;;;;;;;;;;;;;;15.38;52.94;98827.87;4439732;32;33458;-77
2022/04/25 06:25:47;;;;;;;;;;;;;;;15.24;53.09;98832.31;4444222;32;35501;-77
2022/04/25 06:28:14;;;;;;;;;;;;;;;15.53;52.50;98829.41;4435230;32;34830;-75
2022/04/25 06:30:41;;;;;;;;;;;;;;;15.41;53.26;98827.50;4428864;32;34643;-75
2022/04/25 06:33:09;;;;;;;;;;;;;;;15.28;53.49;98830.88;4421057;32;32111;-76
2022/04/25 06:35:37;;;;;;;;;;;;;;;15.69;52.89;98823.69;4418551;32;34380;-77
2022/04/25 06:38:04;;;;;;;;;;;;;;;15.66;52.74;98834.00;4424555;32;36023;-75
2022/04/25 06:40:33;;;;;;;;;;;;;;;15.70;52.95;98837.94;4422061;32;34076;-75
2022/04/25 06:43:01;;;;;;;;;;;;;;;15.72;52.38;98841.25;4417199;32;32739;-75
2022/04/25 06:45:28;;;;;;;;;;;;;;;15.85;52.48;98839.44;4419316;32;33327;-76
2022/04/25 06:47:56;;;;;;;;;;;;;;;15.95;51.95;98841.78;4424384;32;36631;-76
2022/04/25 06:50:24;;;;;;;;;;;;;;;15.53;52.52;98842.81;4425973;32;35436;-76
2022/04/25 06:52:52;;;;;;;;;;;;;;;15.62;52.39;98843.47;4437480;32;33638;-76
2022/04/25 06:55:20;;;;;;;;;;;;;;;15.81;53.02;98848.94;4426210;32;33735;-75
2022/04/25 06:57:48;;;;;;;;;;;;;;;15.76;52.68;98846.00;4443216;32;35745;-80
2022/04/25 07:00:17;;;;;;;;;;;;;;;16.21;50.78;98849.87;4425286;32;34426;-75
2022/04/25 07:03:01;;;;;;;;;;;;;;;15.70;52.58;98857.53;4419801;32;32663;-76
2022/04/25 07:05:29;;;;;;;;;;;;;;;16.09;52.11;98859.56;4425772;32;33308;-76
2022/04/25 07:07:56;;;;;;;;;;;;;;;16.17;51.25;98856.69;4421510;32;35173;-75
2022/04/25 07:10:24;;;;;;;;;;;;;;;16.35;50.99;98867.69;4431692;32;35088;-77
2022/04/25 07:12:52;;;;;;;;;;;;;;;16.73;49.69;98863.44;4436205;32;32654;-75
2022/04/25 07:15:20;;;;;;;;;;;;;;;16.65;49.35;98863.63;4432918;32;34311;-77
2022/04/25 07:17:50;;;;;;;;;;;;;;;16.62;49.80;98867.53;4426391;32;35032;-75
2022/04/25 07:20:18;;;;;;;;;;;;;;;16.86;49.37;98866.97;4423433;32;32478;-75
2022/04/25 07:31:05;;;;;;;;;;;;;;;16.70;49.96;98867.34;4421863;32;34133;-75
2022/04/25 07:33:35;;;;;;;;;;;;;;;16.88;51.31;98864.87;4430296;32;34049;-76
2022/04/25 07:36:03;;;;;;;;;;;;;;;17.05;48.42;98866.13;4440065;32;34210;-76
2022/04/25 07:38:30;;;;;;;;;;;;;;;17.22;49.84;98864.69;4419359;32;33944;-76
2022/04/25 07:40:59;;;;;;;;;;;;;;;17.25;48.50;98866.94;4427430;32;35359;-76
2022/04/25 07:43:46;;;;;;;;;;;;;;;16.89;49.24;98871.91;4436073;32;34162;-76
2022/04/25 07:46:16;;;;;;;;;;;;;;;17.68;47.36;98866.25;4432957;32;35054;-76
2022/04/25 07:48:43;;;;;;;;;;;;;;;17.76;47.26;98876.78;4423676;32;34446;-76
2022/04/25 07:51:11;;;;;;;;;;;;;;;17.66;46.98;98878.28;4423522;32;34450;-75
2022/04/25 07:53:38;;;;;;;;;;;;;;;17.54;48.72;98874.56;4436340;32;34034;-76
2022/04/25 07:56:07;;;;;;;;;;;;;;;17.73;46.69;98881.75;4436134;32;34240;-75
2022/04/25 07:58:35;;;;;;;;;;;;;;;17.63;46.54;98878.69;4423371;32;35078;-75
2022/04/25 08:01:03;;;;;;;;;;;;;;;17.94;46.27;98874.25;4418648;32;34799;-77
2022/04/25 08:03:34;;;;;;;;;;;;;;;17.92;47.14;98880.87;4419464;32;31924;-77
2022/04/25 08:06:03;;;;;;;;;;;;;;;18.23;45.92;98878.28;4430455;32;34451;-76
2022/04/25 08:08:38;;;;;;;;;;;;;;;17.95;47.84;98875.09;4426494;32;35661;-75
2022/04/25 08:11:05;;;;;;;;;;;;;;;18.17;45.45;98873.72;4433376;32;34537;-76
2022/04/25 08:19:05;;;;;;;;;;;;;;;17.96;44.02;98876.72;4437820;32;34578;-75
2022/04/25 08:21:33;;;;;;;;;;;;;;;17.72;47.18;98880.09;4439024;32;35307;-78
2022/04/25 08:24:02;;;;;;;;;;;;;;;18.27;45.60;98883.00;4427169;32;33497;-76
2022/04/25 08:26:29;;;;;;;;;;;;;;;18.61;44.40;98879.94;4421780;32;34918;-76
2022/04/25 08:28:57;;;;;;;;;;;;;;;19.01;44.42;98875.91;4437889;32;36091;-76
2022/04/25 08:31:35;;;;;;;;;;;;;;;18.99;44.69;98883.38;4408950;32;34317;-75
2022/04/25 08:34:07;;;;;;;;;;;;;;;18.96;42.65;98880.28;4420898;32;33881;-76
2022/04/25 08:36:35;;;;;;;;;;;;;;;19.26;45.01;98882.13;4405752;32;34067;-76
2022/04/25 08:39:04;;;;;;;;;;;;;;;19.13;44.95;98893.03;4413926;32;34893;-75
2022/04/25 08:41:36;;;;;;;;;;;;;;;19.18;43.16;98886.97;4412391;32;33440;-78
2022/04/25 08:44:05;;;;;;;;;;;;;;;18.68;43.02;98898.72;4424192;32;33364;-76
2022/04/25 08:46:36;;;;;;;;;;;;;;;18.72;44.41;98894.56;4422462;32;34065;-75
2022/04/25 08:49:03;;;;;;;;;;;;;;;18.46;45.26;98906.34;4426613;32;34820;-78
2022/04/25 08:51:37;;;;;;;;;;;;;;;18.84;44.77;98895.53;4424199;32;34896;-75
2022/04/25 08:54:08;;;;;;;;;;;;;;;18.63;46.06;98909.34;4439809;32;33943;-75
2022/04/25 08:56:37;;;;;;;;;;;;;;;18.84;44.36;98895.53;4426821;32;33641;-76
2022/04/25 08:59:05;;;;;;;;;;;;;;;18.62;43.99;98903.13;4424441;32;35308;-81
2022/04/25 09:01:33;;;;;;;;;;;;;;;18.46;44.88;98909.03;4431544;32;34594;-78
2022/04/25 09:04:02;;;;;;;;;;;;;;;18.47;44.27;98901.78;4427809;32;32711;-76
2022/04/25 09:06:29;;;;;;;;;;;;;;;18.13;45.35;98907.50;4409437;32;32994;-75
2022/04/25 09:08:57;;;;;;;;;;;;;;;18.69;45.17;98912.00;4423947;32;36100;-75
2022/04/25 09:14:11;;;;;;;;;;;;;;;18.95;42.52;98909.13;4426230;32;33400;-77
2022/04/25 09:16:39;;;;;;;;;;;;;;;18.76;42.15;98914.66;4430813;32;33767;-76
2022/04/25 09:19:07;;;;;;;;;;;;;;;18.52;43.53;98923.50;4438670;32;36050;-76
2022/04/25 09:21:41;;;;;;;;;;;;;;;19.05;45.16;98920.25;4425423;32;34938;-76
2022/04/25 09:24:19;;;;;;;;;;;;;;;19.17;42.40;98917.69;4440153;32;32775;-75
2022/04/25 09:27:09;;;;;;;;;;;;;;;19.57;42.16;98922.53;4440884;32;33695;-77
2022/04/25 09:29:36;;;;;;;;;;;;;;;19.79;41.05;98920.22;4437511;32;35517;-76
2022/04/25 09:32:04;;;;;;;;;;;;;;;19.70;41.76;98918.87;4423402;32;34368;-76
2022/04/25 09:37:20;;;;;;;;;;;;;;;19.55;40.24;98937.28;4435927;32;35015;-77
2022/04/25 09:39:47;;;;;;;;;;;;;;;19.14;40.32;98926.19;4422651;32;35894;-77
2022/04/25 09:42:15;;;;;;;;;;;;;;;19.05;44.19;98928.34;4435498;32;34787;-77
2022/04/25 09:44:53;;;;;;;;;;;;;;;19.53;42.19;98925.91;4437924;32;32910;-76
2022/04/25 09:47:39;;;;;;;;;;;;;;;19.51;40.17;98931.50;4422733;32;34341;-76
2022/04/25 09:50:10;;;;;;;;;;;;;;;19.58;40.47;98937.69;4441662;32;35616;-75
2022/04/25 09:52:59;;;;;;;;;;;;;;;19.59;40.49;98939.31;4427405;32;34529;-75
2022/04/25 09:55:29;;;;;;;;;;;;;;;19.12;40.01;98941.75;4423818;32;32813;-75
2022/04/25 09:57:57;;;;;;;;;;;;;;;19.01;41.21;98948.72;4440195;32;33341;-76
2022/04/25 10:00:25;;;;;;;;;;;;;;;19.04;42.24;98950.13;4412022;32;35663;-77
2022/04/25 10:03:00;;;;;;;;;;;;;;;19.48;42.64;98948.16;4438116;32;35332;-75
2022/04/25 10:05:39;;;;;;;;;;;;;;;19.26;41.90;98954.16;4418398;32;32262;-75
2022/04/25 10:08:08;;;;;;;;;;;;;;;19.40;41.22;98958.38;4436495;32;34437;-77
2022/04/25 10:10:41;;;;;;;;;;;;;;;19.41;40.99;98957.31;4437734;32;35130;-76
2022/04/25 10:13:09;;;;;;;;;;;;;;;19.87;41.44;98949.63;4416378;32;34533;-75
2022/04/25 10:15:37;;;;;;;;;;;;;;;20.17;39.70;98948.69;4421393;32;34176;-79
2022/04/25 10:18:05;;;;;;;;;;;;;;;20.19;39.78;98949.28;4419169;32;34005;-76
2022/04/25 10:20:36;;;;;;;;;;;;;;;20.34;40.27;98959.72;4419654;32;36206;-77
2022/04/25 10:23:04;;;;;;;;;;;;;;;20.07;38.39;98961.06;4421520;32;34870;-76
2022/04/25 10:25:32;;;;;;;;;;;;;;;20.12;38.35;98958.53;4437730;32;33123;-76
2022/04/25 10:27:59;;;;;;;;;;;;;;;19.86;41.74;98956.06;4436751;32;34539;-76
2022/04/25 10:30:33;;;;;;;;;;;;;;;20.43;40.22;98958.34;4424268;32;33242;-75
2022/04/25 10:33:16;;;;;;;;;;;;;;;20.24;39.76;98959.41;4407323;32;34514;-77
2022/04/25 10:35:49;;;;;;;;;;;;;;;20.28;38.96;98966.84;4422046;32;33096;-77
2022/04/25 10:38:47;;;;;;;;;;;;;;;20.38;39.73;98964.44;4433276;32;34126;-76
2022/04/25 10:44:19;;;;;;;;;;;;;;;19.79;40.30;98977.75;4425923;32;34129;-75
2022/04/25 10:47:05;;;;;;;;;;;;;;;19.87;41.29;98969.34;4433802;32;32744;-82
2022/04/25 10:49:33;;;;;;;;;;;;;;;19.81;38.79;98964.03;4435324;32;33642;-76
2022/04/25 10:52:01;;;;;;;;;;;;;;;19.05;39.24;98981.41;4421395;32;35108;-76
2022/04/25 10:54:45;;;;;;;;;;;;;;;18.98;40.79;98978.78;4421432;32;34511;-76
2022/04/25 10:57:14;;;;;;;;;;;;;;;19.28;41.67;98979.03;4424451;32;33816;-76
2022/04/25 10:59:42;;;;;;;;;;;;;;;20.02;41.56;98983.31;4435890;32;34622;-76
2022/04/25 11:02:24;;;;;;;;;;;;;;;20.22;39.68;98975.88;4421670;32;35017;-76
2022/04/25 11:05:27;;;;;;;;;;;;;;;20.56;38.35;98985.22;4422573;32;33039;-75
2022/04/25 11:08:14;;;;;;;;;;;;;;;20.04;39.72;98994.78;4359422;32;34210;-76
2022/04/25 11:10:44;;;;;;;;;;;;;;;20.63;39.16;98984.94;4374121;32;34990;-75
2022/04/25 11:13:19;;;;;;;;;;;;;;;21.24;37.48;98982.81;4371302;32;35410;-75
2022/04/25 11:15:50;;;;;;;;;;;;;;;21.28;36.60;98992.12;4358338;32;35145;-75
2022/04/25 11:18:34;;;;;;;;;;;;;;;20.81;37.59;98989.47;4365517;32;33067;-76
2022/04/25 11:21:05;;;;;;;;;;;;;;;21.04;37.92;98994.97;4347589;32;33486;-76
2022/04/25 11:23:32;;;;;;;;;;;;;;;20.92;37.88;98996.81;4375246;32;34039;-76
2022/04/25 11:26:07;;;;;;;;;;;;;;;20.72;37.88;99016.00;4366135;32;35292;-80
2022/04/25 11:28:35;;;;;;;;;;;;;;;20.67;37.24;99012.28;4356932;32;32961;-75
2022/04/25 11:31:17;;;;;;;;;;;;;;;20.43;38.08;99009.69;4362222;32;33362;-75
2022/04/25 11:33:46;;;;;;;;;;;;;;;21.42;38.40;99007.09;4371967;32;35221;-75
2022/04/25 11:36:15;;;;;;;;;;;;;;;21.92;37.08;99005.66;4355725;32;33149;-76
2022/04/25 11:41:30;;;;;;;;;;;;;;;21.25;35.94;99021.53;4372310;32;33625;-76
2022/04/25 11:43:58;;;;;;;;;;;;;;;21.77;36.22;99021.56;4416421;32;35369;-78
2022/04/25 11:46:25;;;;;;;;;;;;;;;21.43;36.29;99021.47;4420006;32;35533;-76
2022/04/25 11:48:53;;;;;;;;;;;;;;;21.72;35.45;99023.31;4420183;32;33706;-76
2022/04/25 11:51:22;;;;;;;;;;;;;;;21.99;35.22;99033.44;4417042;32;33917;-75
2022/04/25 11:53:57;;;;;;;;;;;;;;;21.79;37.82;99027.56;4421590;32;35710;-76
2022/04/25 11:56:25;;;;;;;;;;;;;;;21.59;34.67;99027.03;4421369;32;33379;-76
2022/04/25 11:58:52;;;;;;;;;;;;;;;21.52;35.53;99023.59;4432777;32;33018;-76
2022/04/25 12:01:33;;;;;;;;;;;;;;;21.59;35.49;99037.00;4432210;32;33398;-78
2022/04/25 12:04:14;;;;;;;;;;;;;;;20.97;34.88;99030.22;4413673;32;35873;-82
2022/04/25 12:06:55;;;;;;;;;;;;;;;20.88;35.25;99037.00;4428752;32;35582;-77
2022/04/25 12:15:34;;;;;;;;;;;;;;;21.48;35.27;99038.66;4412116;32;33726;-77
2022/04/25 12:18:16;;;;;;;;;;;;;;;21.09;35.04;99033.81;4416854;32;34710;-77
2022/04/25 12:20:49;;;;;;;;;;;;;;;21.43;34.04;99033.09;4429683;32;32714;-76
2022/04/25 12:23:20;;;;;;;;;;;;;;;22.17;33.34;99035.22;4429355;32;34299;-77
2022/04/25 12:25:48;;;;;;;;;;;;;;;22.48;33.10;99043.00;4401986;32;34904;-80
2022/04/25 12:28:17;;;;;;;;;;;;;;;21.87;34.35;99040.75;4415138;32;34625;-75
2022/04/25 12:30:44;;;;;;;;;;;;;;;22.37;34.00;99035.69;4414750;32;31770;-77
2022/04/25 12:33:14;;;;;;;;;;;;;;;22.93;33.22;99043.94;4429328;32;33610;-77
2022/04/25 12:35:41;;;;;;;;;;;;;;;22.65;30.90;99042.00;4415162;32;35510;-76
2022/04/25 12:38:09;;;;;;;;;;;;;;;22.75;32.11;99044.12;4415220;32;34106;-76
2022/04/25 12:40:56;;;;;;;;;;;;;;;23.32;33.03;99048.53;4429144;32;33813;-77
2022/04/25 12:43:40;;;;;;;;;;;;;;;22.65;32.21;99052.06;4414827;32;34504;-75
2022/04/25 12:46:08;;;;;;;;;;;;;;;23.30;31.80;99046.06;4414662;32;35124;-77
2022/04/25 12:48:54;;;;;;;;;;;;;;;22.90;31.21;99033.56;4402112;32;34378;-75
2022/04/25 12:51:27;;;;;;;;;;;;;;;23.66;29.95;99042.09;4426499;32;33279;-76
2022/04/25 12:53:55;;;;;;;;;;;;;;;23.03;31.38;99052.28;4413009;32;32317;-76
2022/04/25 12:56:23;;;;;;;;;;;;;;;23.35;30.55;99053.47;4426055;32;35329;-77
2022/04/25 12:58:51;;;;;;;;;;;;;;;24.13;29.70;99041.53;4400542;32;34378;-76
2022/04/25 13:01:27;;;;;;;;;;;;;;;23.79;30.37;99045.28;4426024;32;33454;-77
2022/04/25 13:04:04;;;;;;;;;;;;;;;23.47;31.61;99059.66;4404523;32;34844;-76
2022/04/25 13:06:31;;;;;;;;;;;;;;;23.73;30.79;99049.81;4421187;32;35046;-76
2022/04/25 13:08:59;;;;;;;;;;;;;;;23.39;31.02;99060.06;4411935;32;34407;-77
2022/04/25 13:11:46;;;;;;;;;;;;;;;22.71;30.67;99065.47;4427321;32;33148;-77
2022/04/25 13:14:14;;;;;;;;;;;;;;;22.65;31.13;99069.13;4412163;32;33959;-75
2022/04/25 13:16:42;;;;;;;;;;;;;;;22.95;30.53;99053.47;4411433;32;36654;-76
2022/04/25 13:19:09;;;;;;;;;;;;;;;23.16;30.64;99052.03;4421250;32;34229;-78
2022/04/25 13:21:40;;;;;;;;;;;;;;;23.17;29.95;99042.81;4413762;32;32561;-79
2022/04/25 13:24:08;;;;;;;;;;;;;;;23.73;29.12;99051.72;4427771;32;34103;-80
2022/04/25 13:26:39;;;;;;;;;;;;;;;22.85;29.56;99055.19;4425649;32;36734;-78
2022/04/25 13:29:07;;;;;;;;;;;;;;;23.11;30.88;99060.06;4411412;32;34148;-76
2022/04/25 13:31:34;;;;;;;;;;;;;;;23.39;30.81;99057.38;4406403;32;33614;-77
2022/04/25 13:34:01;;;;;;;;;;;;;;;23.10;29.35;99064.63;4411399;32;33572;-80
2022/04/25 13:36:29;;;;;;;;;;;;;;;22.59;32.04;99067.38;4412895;32;35338;-77
2022/04/25 13:38:56;;;;;;;;;;;;;;;23.08;30.69;99077.63;4415227;32;33434;-77
2022/04/25 13:41:24;;;;;;;;;;;;;;;22.99;30.63;99068.22;4402694;32;32138;-78